Time;durP1;ratioP1;P1;durP2;ratioP2;P2;SDS_P1;SDS_P2;PMS_P1;PMS_P2;Temp;Humidity;BMP_temperature;BMP_pressure;BME280_temperature;BME280_humidity;BME280_pressure;Samples;Min_cycle;Max_cycle;Signal;HPM_P1;HPM_P2
2023/03/27 00:00:57;;;;;;;1.60;1.50;;;;;;;;;;5015519;28;20334;-24
2023/03/27 00:03:24;;;;;;;1.58;1.48;;;;;;;;;;5014853;28;20121;-23
2023/03/27 00:06:00;;;;;;;1.45;1.35;;;;;;;;;;5015769;28;20105;-23
2023/03/27 00:08:28;;;;;;;1.23;1.23;;;;;;;;;;5015138;28;20022;-23
2023/03/27 00:10:54;;;;;;;1.48;1.38;;;;;;;;;;5015610;28;20112;-25
2023/03/27 00:13:21;;;;;;;1.70;1.40;;;;;;;;;;5015034;28;20025;-23
2023/03/27 00:15:49;;;;;;;1.58;1.48;;;;;;;;;;5015064;28;20521;-22
2023/03/27 00:18:15;;;;;;;1.90;1.60;;;;;;;;;;5015031;28;20021;-23
2023/03/27 00:20:41;;;;;;;1.50;1.40;;;;;;;;;;5015284;28;20453;-23
2023/03/27 00:23:07;;;;;;;1.73;1.25;;;;;;;;;;5014796;28;20041;-23
2023/03/27 00:25:34;;;;;;;1.65;1.55;;;;;;;;;;5014922;28;20018;-25
2023/03/27 00:28:01;;;;;;;1.45;1.35;;;;;;;;;;5015625;28;20036;-23
2023/03/27 00:30:28;;;;;;;1.40;1.30;;;;;;;;;;5014888;28;20022;-22
2023/03/27 00:32:55;;;;;;;1.50;1.40;;;;;;;;;;5014761;28;20413;-24
2023/03/27 00:35:22;;;;;;;1.42;1.38;;;;;;;;;;5014830;28;20093;-20
2023/03/27 00:37:48;;;;;;;1.35;1.20;;;;;;;;;;5015031;28;20048;-21
2023/03/27 00:40:18;;;;;;;1.30;1.30;;;;;;;;;;5014767;28;20113;-26
2023/03/27 00:42:48;;;;;;;1.63;1.52;;;;;;;;;;5014608;28;20095;-20
2023/03/27 00:48:19;;;;;;;1.73;1.63;;;;;;;;;;5015025;28;20025;-21
2023/03/27 00:50:46;;;;;;;1.50;1.40;;;;;;;;;;5015777;28;20026;-27
2023/03/27 00:53:17;;;;;;;1.27;1.25;;;;;;;;;;5018603;28;20385;-21
2023/03/27 00:55:45;;;;;;;2.92;1.80;;;;;;;;;;5018713;28;20057;-21
2023/03/27 00:58:14;;;;;;;1.45;1.35;;;;;;;;;;5018549;28;20037;-22
2023/03/27 01:00:40;;;;;;;1.60;1.50;;;;;;;;;;5001238;28;20517;-24
2023/03/27 01:03:07;;;;;;;1.52;1.33;;;;;;;;;;5018450;28;20049;-21
2023/03/27 01:05:33;;;;;;;1.70;1.60;;;;;;;;;;5018293;28;20057;-23
2023/03/27 01:08:00;;;;;;;1.70;1.60;;;;;;;;;;5018660;28;20037;-21
2023/03/27 01:10:30;;;;;;;1.40;1.40;;;;;;;;;;5018610;28;20033;-20
2023/03/27 01:13:19;;;;;;;1.48;1.27;;;;;;;;;;5018241;28;20033;-20
2023/03/27 01:15:45;;;;;;;1.38;1.38;;;;;;;;;;5018441;28;20026;-21
2023/03/27 01:18:11;;;;;;;1.52;1.42;;;;;;;;;;5018204;28;20041;-20
2023/03/27 01:20:56;;;;;;;1.23;1.13;;;;;;;;;;5018106;28;20080;-22
2023/03/27 01:23:22;;;;;;;1.40;1.30;;;;;;;;;;5017999;28;20026;-20
2023/03/27 01:26:10;;;;;;;1.33;1.30;;;;;;;;;;5019125;28;20344;-20
2023/03/27 01:28:53;;;;;;;1.80;1.70;;;;;;;;;;5018326;28;20033;-23
2023/03/27 01:31:22;;;;;;;1.40;1.40;;;;;;;;;;5017984;28;20022;-24
2023/03/27 01:33:57;;;;;;;1.45;1.42;;;;;;;;;;5017812;28;20088;-26
2023/03/27 01:36:39;;;;;;;1.45;1.35;;;;;;;;;;5017876;28;20025;-23
2023/03/27 01:39:11;;;;;;;1.35;1.35;;;;;;;;;;5017874;28;20030;-22
2023/03/27 01:41:42;;;;;;;1.40;1.30;;;;;;;;;;5017954;28;20030;-23
2023/03/27 01:44:29;;;;;;;1.35;1.25;;;;;;;;;;5017618;28;20037;-24
2023/03/27 01:47:14;;;;;;;1.50;1.40;;;;;;;;;;5017940;28;20327;-23
2023/03/27 01:49:42;;;;;;;1.20;1.20;;;;;;;;;;5017648;28;20032;-23
2023/03/27 01:52:12;;;;;;;1.45;1.35;;;;;;;;;;5017531;28;20034;-25
2023/03/27 01:54:40;;;;;;;1.52;1.40;;;;;;;;;;5017510;28;20018;-24
2023/03/27 01:57:07;;;;;;;1.35;1.25;;;;;;;;;;5018029;28;20076;-23
2023/03/27 01:59:36;;;;;;;1.52;1.42;;;;;;;;;;5017729;28;20030;-23
2023/03/27 02:02:06;;;;;;;1.20;1.10;;;;;;;;;;5017298;28;20030;-25
2023/03/27 02:04:49;;;;;;;1.70;1.33;;;;;;;;;;5000039;28;20075;-23
2023/03/27 02:07:19;;;;;;;1.50;1.40;;;;;;;;;;5017631;28;20049;-22
2023/03/27 02:09:48;;;;;;;1.63;1.30;;;;;;;;;;5018167;28;20022;-23
2023/03/27 02:12:19;;;;;;;1.43;1.33;;;;;;;;;;5017418;28;20109;-22
2023/03/27 02:14:50;;;;;;;1.50;1.40;;;;;;;;;;5017757;28;20107;-23
2023/03/27 02:17:18;;;;;;;2.55;1.55;;;;;;;;;;5017097;28;20050;-23
2023/03/27 02:19:47;;;;;;;1.55;1.45;;;;;;;;;;5017076;28;20401;-23
2023/03/27 02:22:14;;;;;;;1.38;1.33;;;;;;;;;;5017198;28;20029;-22
2023/03/27 02:24:42;;;;;;;1.05;1.05;;;;;;;;;;5017246;28;20022;-23
2023/03/27 02:27:16;;;;;;;1.63;1.52;;;;;;;;;;5016966;28;20386;-23
2023/03/27 02:29:45;;;;;;;1.27;1.27;;;;;;;;;;5016887;28;20100;-23
2023/03/27 02:32:23;;;;;;;1.52;1.42;;;;;;;;;;5017024;28;20434;-23
2023/03/27 02:35:08;;;;;;;1.45;1.35;;;;;;;;;;5017147;28;20026;-23
2023/03/27 02:38:10;;;;;;;1.30;1.20;;;;;;;;;;4999508;28;20034;-24
2023/03/27 02:40:36;;;;;;;1.13;1.13;;;;;;;;;;4938169;29;20056;-23
2023/03/27 02:43:12;;;;;;;1.67;1.55;;;;;;;;;;5000694;28;20044;-23
2023/03/27 02:45:38;;;;;;;1.35;1.25;;;;;;;;;;5016837;28;20026;-25
2023/03/27 02:48:08;;;;;;;1.17;0.95;;;;;;;;;;5016846;28;20034;-23
2023/03/27 02:50:43;;;;;;;1.50;1.40;;;;;;;;;;5016515;28;20050;-23
2023/03/27 02:53:11;;;;;;;1.48;1.48;;;;;;;;;;5016377;28;20037;-24
2023/03/27 02:55:40;;;;;;;2.05;1.40;;;;;;;;;;5016429;28;20029;-27
2023/03/27 02:58:08;;;;;;;1.27;1.17;;;;;;;;;;5016303;28;20022;-23
2023/03/27 03:00:38;;;;;;;1.42;1.33;;;;;;;;;;5016320;28;20465;-26
2023/03/27 03:03:08;;;;;;;1.40;1.30;;;;;;;;;;5016211;28;20040;-23
2023/03/27 03:05:38;;;;;;;1.60;1.50;;;;;;;;;;5016111;28;20050;-23
2023/03/27 03:08:08;;;;;;;1.30;1.30;;;;;;;;;;5016187;28;20033;-23
2023/03/27 03:10:35;;;;;;;1.05;1.05;;;;;;;;;;5016156;28;20152;-23
2023/03/27 03:13:01;;;;;;;1.42;1.42;;;;;;;;;;5015444;28;20053;-22
2023/03/27 03:15:27;;;;;;;1.45;1.35;;;;;;;;;;4998802;28;20084;-23
2023/03/27 03:17:53;;;;;;;1.70;1.60;;;;;;;;;;5016259;28;20169;-28
2023/03/27 03:20:20;;;;;;;1.08;1.05;;;;;;;;;;5015968;28;20453;-27
2023/03/27 03:22:46;;;;;;;1.90;1.80;;;;;;;;;;5015810;28;20034;-24
2023/03/27 03:25:13;;;;;;;1.50;1.40;;;;;;;;;;5016421;28;20101;-23
2023/03/27 03:27:40;;;;;;;1.70;1.40;;;;;;;;;;5015842;28;20018;-28
2023/03/27 03:30:08;;;;;;;1.38;1.38;;;;;;;;;;5016043;28;20064;-25
2023/03/27 03:32:34;;;;;;;1.38;1.35;;;;;;;;;;5015634;28;20038;-25
2023/03/27 03:35:00;;;;;;;1.75;1.65;;;;;;;;;;5015686;28;20033;-23
2023/03/27 03:37:27;;;;;;;1.63;1.52;;;;;;;;;;5016161;28;20025;-25
2023/03/27 03:39:54;;;;;;;1.13;1.02;;;;;;;;;;5015547;28;20088;-25
2023/03/27 03:42:20;;;;;;;1.00;1.00;;;;;;;;;;5015667;28;20026;-25
2023/03/27 03:44:47;;;;;;;1.23;1.15;;;;;;;;;;5015559;28;20022;-23
2023/03/27 03:47:13;;;;;;;1.50;1.40;;;;;;;;;;5015464;28;20097;-25
2023/03/27 03:49:39;;;;;;;1.70;1.60;;;;;;;;;;5015617;28;20026;-25
2023/03/27 03:52:06;;;;;;;1.05;1.05;;;;;;;;;;5015262;28;20026;-25
2023/03/27 03:54:32;;;;;;;1.40;1.30;;;;;;;;;;4998042;28;20034;-23
2023/03/27 03:56:58;;;;;;;1.40;1.30;;;;;;;;;;5015304;28;20385;-24
2023/03/27 03:59:25;;;;;;;1.10;1.10;;;;;;;;;;5015236;28;20069;-25
2023/03/27 04:01:51;;;;;;;3.20;1.20;;;;;;;;;;5016153;28;20030;-26
2023/03/27 04:04:17;;;;;;;1.40;1.30;;;;;;;;;;5015155;28;20389;-25
2023/03/27 04:06:44;;;;;;;1.52;1.42;;;;;;;;;;5015401;28;20018;-23
2023/03/27 04:09:11;;;;;;;1.33;1.23;;;;;;;;;;5014898;28;20018;-23
2023/03/27 04:11:37;;;;;;;1.50;1.40;;;;;;;;;;5014824;28;20025;-22
2023/03/27 04:14:03;;;;;;;1.13;1.00;;;;;;;;;;5015068;28;20341;-24
2023/03/27 04:16:29;;;;;;;1.33;1.25;;;;;;;;;;5014740;28;20037;-26
2023/03/27 04:18:55;;;;;;;1.60;1.50;;;;;;;;;;5014723;28;20021;-23
2023/03/27 04:21:25;;;;;;;1.80;1.70;;;;;;;;;;5014711;28;20330;-24
2023/03/27 04:23:51;;;;;;;1.52;1.42;;;;;;;;;;5014783;28;20030;-23
2023/03/27 04:26:17;;;;;;;1.50;1.40;;;;;;;;;;5014542;28;20030;-23
2023/03/27 04:28:43;;;;;;;1.30;1.20;;;;;;;;;;5015026;28;20034;-24
2023/03/27 04:31:10;;;;;;;1.50;1.40;;;;;;;;;;5014925;28;20457;-23
2023/03/27 04:33:38;;;;;;;1.02;1.02;;;;;;;;;;5014731;28;20029;-23
2023/03/27 04:36:07;;;;;;;1.30;1.20;;;;;;;;;;5014626;28;20049;-23
2023/03/27 04:38:35;;;;;;;3.88;1.67;;;;;;;;;;5014439;28;20109;-22
2023/03/27 04:41:02;;;;;;;1.30;1.20;;;;;;;;;;5014760;28;20065;-23
2023/03/27 04:43:28;;;;;;;1.25;1.15;;;;;;;;;;5014610;28;20030;-23
2023/03/27 04:45:55;;;;;;;3.08;1.45;;;;;;;;;;5014832;28;20026;-24
2023/03/27 04:48:21;;;;;;;1.55;1.45;;;;;;;;;;5014301;28;20041;-23
2023/03/27 04:50:48;;;;;;;9.95;1.67;;;;;;;;;;5014737;28;20026;-24
2023/03/27 04:53:22;;;;;;;2.63;1.30;;;;;;;;;;5014428;28;20038;-26
2023/03/27 04:55:49;;;;;;;1.15;1.13;;;;;;;;;;5014616;28;20022;-23
2023/03/27 04:58:16;;;;;;;5.68;2.00;;;;;;;;;;5015279;28;20036;-25
2023/03/27 05:00:49;;;;;;;4.53;1.60;;;;;;;;;;5015363;28;20045;-24
2023/03/27 05:03:17;;;;;;;3.65;1.80;;;;;;;;;;5014343;28;20026;-26
2023/03/27 05:05:44;;;;;;;15.63;2.40;;;;;;;;;;5014474;28;20480;-23
2023/03/27 05:08:10;;;;;;;3.65;1.95;;;;;;;;;;5014688;28;20029;-23
2023/03/27 05:10:36;;;;;;;5.32;1.73;;;;;;;;;;5014457;28;20026;-23
2023/03/27 05:13:02;;;;;;;7.28;2.30;;;;;;;;;;5014370;28;20028;-25
2023/03/27 05:15:31;;;;;;;2.35;1.70;;;;;;;;;;5014416;28;20029;-24
2023/03/27 05:17:57;;;;;;;3.20;1.67;;;;;;;;;;5014481;28;20100;-23
2023/03/27 05:20:24;;;;;;;2.25;1.70;;;;;;;;;;5014236;28;20333;-25
2023/03/27 05:22:54;;;;;;;7.95;1.70;;;;;;;;;;5013974;28;20026;-23
2023/03/27 05:25:21;;;;;;;7.13;3.63;;;;;;;;;;5014506;28;20437;-25
2023/03/27 05:27:48;;;;;;;2.65;1.42;;;;;;;;;;5013899;28;20398;-23
2023/03/27 05:30:15;;;;;;;4.95;2.00;;;;;;;;;;5014048;28;20360;-25
2023/03/27 05:32:44;;;;;;;2.75;1.30;;;;;;;;;;5014316;28;20057;-23
2023/03/27 05:35:10;;;;;;;5.45;1.55;;;;;;;;;;5013940;28;20141;-27
2023/03/27 05:37:37;;;;;;;6.32;1.95;;;;;;;;;;5016267;28;20365;-22
2023/03/27 05:40:04;;;;;;;5.28;1.70;;;;;;;;;;5017358;28;20029;-22
2023/03/27 05:42:31;;;;;;;3.92;1.80;;;;;;;;;;5017151;28;20026;-23
2023/03/27 05:44:57;;;;;;;7.10;1.58;;;;;;;;;;5017620;28;20116;-26
2023/03/27 05:47:23;;;;;;;8.48;1.50;;;;;;;;;;5017287;28;20029;-23
2023/03/27 05:49:49;;;;;;;4.53;2.15;;;;;;;;;;4999991;28;20037;-23
2023/03/27 05:52:15;;;;;;;4.47;1.58;;;;;;;;;;5017214;28;20026;-24
2023/03/27 05:54:41;;;;;;;4.78;1.30;;;;;;;;;;5017112;28;20033;-26
2023/03/27 05:57:07;;;;;;;4.35;1.50;;;;;;;;;;5017075;28;20097;-23
2023/03/27 05:59:34;;;;;;;4.65;1.77;;;;;;;;;;5017276;28;20049;-26
2023/03/27 06:04:32;;;;;;;1.75;1.45;;;;;;;;;;5035492;28;20360;-25
2023/03/27 06:07:01;;;;;;;1.83;1.38;;;;;;;;;;5036920;28;20024;-25
2023/03/27 06:09:27;;;;;;;1.80;1.42;;;;;;;;;;5036616;28;20029;-25
2023/03/27 06:11:53;;;;;;;1.98;1.42;;;;;;;;;;5037112;28;20029;-25
2023/03/27 06:14:19;;;;;;;5.93;2.13;;;;;;;;;;5036853;28;20017;-26
2023/03/27 06:16:47;;;;;;;9.20;2.03;;;;;;;;;;5036853;28;20356;-25
2023/03/27 06:19:13;;;;;;;1.88;1.30;;;;;;;;;;5036732;28;20026;-26
2023/03/27 06:21:39;;;;;;;2.15;1.60;;;;;;;;;;5036793;28;20022;-25
2023/03/27 06:24:06;;;;;;;3.15;1.77;;;;;;;;;;5037120;28;20144;-26
2023/03/27 06:26:32;;;;;;;3.47;1.23;;;;;;;;;;5036686;28;20022;-25
2023/03/27 06:28:58;;;;;;;2.65;2.45;;;;;;;;;;5036591;28;20040;-26
2023/03/27 06:31:26;;;;;;;2.40;1.63;;;;;;;;;;5036786;28;20036;-26
2023/03/27 06:33:52;;;;;;;1.73;1.33;;;;;;;;;;5036670;28;20121;-26
2023/03/27 06:36:18;;;;;;;3.05;1.30;;;;;;;;;;5036771;28;20318;-26
2023/03/27 06:38:44;;;;;;;1.80;1.58;;;;;;;;;;5036305;28;20033;-26
2023/03/27 06:41:10;;;;;;;1.38;1.30;;;;;;;;;;5036203;28;20419;-26
2023/03/27 06:43:37;;;;;;;1.80;1.17;;;;;;;;;;5036099;28;20025;-26
2023/03/27 06:46:03;;;;;;;2.13;1.50;;;;;;;;;;5036381;28;20390;-26
2023/03/27 06:48:30;;;;;;;2.53;1.65;;;;;;;;;;5034953;28;20026;-26
2023/03/27 06:50:56;;;;;;;1.25;1.20;;;;;;;;;;5036254;28;20029;-26
2023/03/27 06:53:22;;;;;;;1.30;1.20;;;;;;;;;;5036212;28;20345;-26
2023/03/27 06:55:49;;;;;;;2.38;1.60;;;;;;;;;;5036262;28;20105;-26
2023/03/27 06:58:17;;;;;;;3.22;1.60;;;;;;;;;;5035848;28;20026;-26
2023/03/27 07:00:44;;;;;;;2.67;1.50;;;;;;;;;;5035681;28;20057;-26
2023/03/27 07:03:11;;;;;;;4.78;1.55;;;;;;;;;;5035262;28;20206;-26
2023/03/27 07:05:39;;;;;;;1.88;1.67;;;;;;;;;;5035984;28;20037;-26
2023/03/27 07:08:06;;;;;;;3.13;2.00;;;;;;;;;;5035770;28;20128;-25
2023/03/27 07:10:33;;;;;;;5.10;1.63;;;;;;;;;;5035566;28;20022;-26
2023/03/27 07:12:59;;;;;;;2.53;1.73;;;;;;;;;;5035415;28;20029;-26
2023/03/27 07:15:25;;;;;;;2.45;1.55;;;;;;;;;;5035597;28;20021;-26
2023/03/27 07:17:55;;;;;;;4.63;1.40;;;;;;;;;;5035420;28;20021;-26
2023/03/27 07:20:22;;;;;;;2.80;1.48;;;;;;;;;;5035379;28;20032;-25
2023/03/27 07:22:48;;;;;;;4.38;1.33;;;;;;;;;;5035094;28;20436;-26
2023/03/27 07:25:15;;;;;;;4.75;1.92;;;;;;;;;;5035255;28;20033;-24
2023/03/27 07:27:41;;;;;;;2.30;1.30;;;;;;;;;;5035381;28;20032;-22
2023/03/27 07:30:10;;;;;;;6.18;1.83;;;;;;;;;;5035809;28;20033;-23
2023/03/27 07:32:37;;;;;;;2.78;1.60;;;;;;;;;;5035456;28;20061;-21
2023/03/27 07:35:07;;;;;;;2.75;1.48;;;;;;;;;;5035330;28;20075;-22
2023/03/27 07:37:35;;;;;;;1.80;1.70;;;;;;;;;;5035374;28;20033;-26
2023/03/27 07:40:01;;;;;;;6.10;1.90;;;;;;;;;;5035289;28;20094;-25
2023/03/27 07:42:27;;;;;;;2.38;1.67;;;;;;;;;;5035036;28;20029;-21
2023/03/27 07:44:54;;;;;;;2.60;1.63;;;;;;;;;;5034969;28;20029;-24
2023/03/27 07:47:20;;;;;;;5.30;1.58;;;;;;;;;;5035009;28;20036;-22
2023/03/27 07:49:46;;;;;;;2.78;1.80;;;;;;;;;;5034968;28;20103;-21
2023/03/27 07:52:12;;;;;;;2.92;1.70;;;;;;;;;;5034853;28;20060;-24
2023/03/27 07:54:38;;;;;;;1.63;1.48;;;;;;;;;;5033689;28;20120;-21
2023/03/27 07:57:04;;;;;;;2.55;1.70;;;;;;;;;;5034642;28;20029;-24
2023/03/27 07:59:31;;;;;;;1.98;1.40;;;;;;;;;;5034698;28;20029;-22
2023/03/27 08:01:57;;;;;;;4.53;1.65;;;;;;;;;;5034187;28;20057;-22
2023/03/27 08:04:23;;;;;;;2.03;1.70;;;;;;;;;;5034241;28;20046;-23
2023/03/27 08:06:50;;;;;;;4.38;1.63;;;;;;;;;;5034611;28;20028;-22
2023/03/27 08:09:16;;;;;;;5.80;1.75;;;;;;;;;;5034600;28;20022;-25
2023/03/27 08:11:43;;;;;;;4.53;1.98;;;;;;;;;;5034527;28;20448;-22
2023/03/27 08:14:09;;;;;;;8.82;2.00;;;;;;;;;;5034465;28;20028;-21
2023/03/27 08:16:35;;;;;;;3.60;1.98;;;;;;;;;;5034390;28;20033;-22
2023/03/27 08:19:03;;;;;;;1.40;1.30;;;;;;;;;;5034867;28;20491;-22
2023/03/27 08:21:33;;;;;;;4.93;2.08;;;;;;;;;;5034251;28;20057;-24
2023/03/27 08:24:03;;;;;;;3.50;1.73;;;;;;;;;;5034213;28;20030;-22
2023/03/27 08:26:32;;;;;;;2.22;1.60;;;;;;;;;;5034432;28;20033;-22
2023/03/27 08:28:59;;;;;;;3.08;1.63;;;;;;;;;;5034616;28;20444;-22
2023/03/27 08:31:27;;;;;;;2.10;1.80;;;;;;;;;;5034186;28;20496;-22
2023/03/27 08:33:54;;;;;;;5.57;1.67;;;;;;;;;;5034461;28;20038;-21
2023/03/27 08:36:20;;;;;;;2.83;1.80;;;;;;;;;;5034363;28;20096;-25
2023/03/27 08:38:46;;;;;;;3.25;1.67;;;;;;;;;;5034013;28;20029;-22
2023/03/27 08:41:26;;;;;;;4.90;1.75;;;;;;;;;;5034139;28;20084;-22
2023/03/27 08:43:56;;;;;;;3.38;2.03;;;;;;;;;;5033821;28;20029;-22
2023/03/27 08:46:25;;;;;;;2.15;1.40;;;;;;;;;;5034154;28;20075;-24
2023/03/27 08:49:01;;;;;;;6.78;1.73;;;;;;;;;;5034426;28;20079;-22
2023/03/27 08:51:37;;;;;;;2.10;1.63;;;;;;;;;;5033949;28;20029;-25
2023/03/27 08:54:06;;;;;;;5.13;1.38;;;;;;;;;;5033855;28;20025;-26
2023/03/27 08:56:33;;;;;;;2.90;2.13;;;;;;;;;;5033842;28;20506;-24
2023/03/27 08:58:59;;;;;;;2.20;1.67;;;;;;;;;;5033852;28;20028;-22
2023/03/27 09:01:29;;;;;;;11.93;2.70;;;;;;;;;;5033986;28;20026;-23
2023/03/27 09:04:03;;;;;;;3.65;1.70;;;;;;;;;;5020257;28;20044;-21
2023/03/27 09:06:37;;;;;;;3.70;1.75;;;;;;;;;;5033535;28;20060;-23
2023/03/27 09:09:11;;;;;;;3.53;2.75;;;;;;;;;;5033617;28;20029;-25
2023/03/27 09:11:43;;;;;;;2.65;2.00;;;;;;;;;;5034522;28;20026;-23
2023/03/27 09:14:18;;;;;;;7.00;2.70;;;;;;;;;;5037543;28;20041;-23
2023/03/27 09:16:48;;;;;;;3.28;1.58;;;;;;;;;;5037873;28;20025;-22
2023/03/27 09:19:33;;;;;;;4.07;1.75;;;;;;;;;;5037799;28;20033;-22
2023/03/27 09:22:17;;;;;;;5.18;1.90;;;;;;;;;;5037797;28;20021;-24
2023/03/27 09:24:46;;;;;;;6.07;1.75;;;;;;;;;;5037581;28;20025;-29
2023/03/27 09:27:21;;;;;;;3.05;1.77;;;;;;;;;;5037339;28;20112;-23
2023/03/27 09:29:56;;;;;;;2.90;1.83;;;;;;;;;;5037373;28;20100;-23
2023/03/27 09:32:22;;;;;;;4.30;1.85;;;;;;;;;;5037146;28;20028;-23
2023/03/27 09:34:48;;;;;;;2.72;1.88;;;;;;;;;;5037392;28;20456;-22
2023/03/27 09:37:16;;;;;;;9.68;1.58;;;;;;;;;;5037229;28;20033;-22
2023/03/27 09:39:45;;;;;;;8.65;1.70;;;;;;;;;;5037461;28;20029;-25
2023/03/27 09:42:18;;;;;;;4.40;1.83;;;;;;;;;;5037144;28;20029;-28
2023/03/27 09:44:46;;;;;;;4.38;2.60;;;;;;;;;;5037266;28;20029;-22
2023/03/27 09:47:17;;;;;;;8.73;2.10;;;;;;;;;;5037081;28;20025;-23
2023/03/27 09:49:58;;;;;;;2.88;1.90;;;;;;;;;;5037341;28;20329;-22
2023/03/27 09:52:42;;;;;;;3.13;2.13;;;;;;;;;;5037402;28;20333;-23
2023/03/27 09:55:29;;;;;;;10.38;1.70;;;;;;;;;;5036942;28;20034;-22
2023/03/27 09:57:59;;;;;;;5.47;2.08;;;;;;;;;;5037035;28;20021;-22
2023/03/27 10:00:29;;;;;;;13.00;2.10;;;;;;;;;;5019964;28;20168;-22
2023/03/27 10:03:06;;;;;;;8.45;2.50;;;;;;;;;;5036672;28;20396;-23
2023/03/27 10:05:36;;;;;;;5.03;1.98;;;;;;;;;;5036677;28;20037;-22
2023/03/27 10:08:18;;;;;;;4.05;2.10;;;;;;;;;;5037038;28;20036;-23
2023/03/27 10:10:44;;;;;;;5.22;1.83;;;;;;;;;;5036768;28;20038;-23
2023/03/27 10:13:15;;;;;;;12.40;3.22;;;;;;;;;;5036602;28;20022;-22
2023/03/27 10:15:41;;;;;;;13.52;3.58;;;;;;;;;;5036439;28;20088;-24
2023/03/27 10:18:20;;;;;;;13.02;2.67;;;;;;;;;;5036701;28;20080;-22
2023/03/27 10:20:53;;;;;;;11.50;1.83;;;;;;;;;;5036697;28;20022;-22
2023/03/27 10:23:27;;;;;;;5.22;1.92;;;;;;;;;;5036186;28;20030;-22
2023/03/27 10:25:57;;;;;;;4.85;2.00;;;;;;;;;;5036464;28;20022;-23
2023/03/27 10:28:33;;;;;;;3.10;1.80;;;;;;;;;;5036311;28;20029;-21
2023/03/27 10:30:59;;;;;;;6.20;2.47;;;;;;;;;;5036199;28;20029;-25
2023/03/27 10:33:34;;;;;;;8.40;2.20;;;;;;;;;;5036274;28;20026;-22
2023/03/27 10:36:00;;;;;;;5.63;2.10;;;;;;;;;;5036222;28;20033;-24
2023/03/27 10:38:27;;;;;;;7.22;1.92;;;;;;;;;;5036383;28;20033;-22
2023/03/27 10:40:54;;;;;;;8.95;2.28;;;;;;;;;;5036351;28;20051;-22
2023/03/27 10:43:40;;;;;;;8.35;2.05;;;;;;;;;;5035708;28;20100;-23
2023/03/27 10:46:11;;;;;;;4.80;2.70;;;;;;;;;;5036111;28;20017;-23
2023/03/27 10:48:40;;;;;;;8.10;1.95;;;;;;;;;;5036445;28;20017;-24
2023/03/27 10:51:21;;;;;;;11.00;2.25;;;;;;;;;;5035976;28;20025;-21
2023/03/27 10:53:54;;;;;;;9.00;2.35;;;;;;;;;;5036336;28;20471;-22
2023/03/27 10:56:26;;;;;;;3.25;2.72;;;;;;;;;;5036199;28;20033;-24
2023/03/27 10:58:52;;;;;;;9.07;3.63;;;;;;;;;;5036183;28;20360;-25
2023/03/27 11:01:25;;;;;;;5.45;2.38;;;;;;;;;;5036168;28;20029;-22
2023/03/27 11:03:57;;;;;;;9.38;2.85;;;;;;;;;;5036096;28;20041;-23
2023/03/27 11:06:28;;;;;;;4.65;1.67;;;;;;;;;;5035727;28;20056;-24
2023/03/27 11:09:04;;;;;;;7.10;2.20;;;;;;;;;;5035825;28;20025;-25
2023/03/27 11:11:38;;;;;;;5.30;2.42;;;;;;;;;;5036466;28;20332;-22
2023/03/27 11:14:10;;;;;;;8.68;3.95;;;;;;;;;;5035900;28;20115;-26
2023/03/27 11:16:47;;;;;;;13.07;2.40;;;;;;;;;;5035936;28;20029;-22
2023/03/27 11:19:22;;;;;;;11.48;2.15;;;;;;;;;;5035636;28;20025;-22
2023/03/27 11:21:51;;;;;;;3.90;1.80;;;;;;;;;;5035465;28;20286;-22
2023/03/27 11:24:33;;;;;;;4.03;2.22;;;;;;;;;;5035220;28;20029;-22
2023/03/27 11:27:05;;;;;;;8.18;2.08;;;;;;;;;;5035468;28;20030;-23
2023/03/27 11:29:52;;;;;;;14.32;2.40;;;;;;;;;;5035412;28;20029;-22
2023/03/27 11:32:28;;;;;;;6.03;2.03;;;;;;;;;;5027866;28;20041;-23
2023/03/27 11:35:05;;;;;;;6.57;2.08;;;;;;;;;;5034792;28;20030;-23
2023/03/27 11:37:34;;;;;;;5.72;2.28;;;;;;;;;;5035618;28;20058;-26
2023/03/27 11:40:19;;;;;;;3.63;2.45;;;;;;;;;;5035261;28;20025;-24
2023/03/27 11:42:46;;;;;;;3.15;2.05;;;;;;;;;;5034925;28;20029;-23
2023/03/27 11:45:14;;;;;;;4.80;2.00;;;;;;;;;;5035025;28;20052;-24
2023/03/27 11:47:51;;;;;;;13.00;3.60;;;;;;;;;;5034952;28;20021;-28
2023/03/27 11:50:22;;;;;;;5.20;2.22;;;;;;;;;;5017286;28;20364;-22
2023/03/27 11:53:07;;;;;;;6.90;2.03;;;;;;;;;;5034579;28;20083;-22
2023/03/27 11:55:52;;;;;;;5.60;2.13;;;;;;;;;;5034927;28;20104;-23
2023/03/27 11:58:37;;;;;;;4.35;2.58;;;;;;;;;;5034492;28;20025;-23
2023/03/27 12:01:06;;;;;;;7.60;2.00;;;;;;;;;;5034481;28;20033;-24
2023/03/27 12:03:39;;;;;;;10.23;1.95;;;;;;;;;;5034622;28;20345;-24
2023/03/27 12:06:13;;;;;;;15.60;2.47;;;;;;;;;;5034194;28;20069;-23
2023/03/27 12:08:58;;;;;;;13.57;2.30;;;;;;;;;;5034357;28;20452;-22
2023/03/27 12:11:25;;;;;;;10.07;2.15;;;;;;;;;;5034391;28;20108;-23
2023/03/27 12:14:06;;;;;;;9.35;2.13;;;;;;;;;;5034333;28;20414;-23
2023/03/27 12:16:55;;;;;;;7.05;2.15;;;;;;;;;;5034290;28;20360;-26
2023/03/27 12:19:37;;;;;;;11.25;3.15;;;;;;;;;;5028894;28;20037;-22
2023/03/27 12:22:13;;;;;;;9.93;3.13;;;;;;;;;;5034614;28;20048;-26
2023/03/27 12:24:58;;;;;;;9.73;2.15;;;;;;;;;;5034540;28;20100;-22
2023/03/27 12:27:33;;;;;;;7.68;2.35;;;;;;;;;;5034777;28;20033;-22
2023/03/27 12:30:11;;;;;;;23.67;2.63;;;;;;;;;;5034290;28;20013;-25
2023/03/27 12:32:47;;;;;;;10.30;2.33;;;;;;;;;;5034111;28;20096;-23
2023/03/27 12:35:18;;;;;;;10.98;2.25;;;;;;;;;;5034330;28;20472;-23
2023/03/27 12:37:56;;;;;;;6.38;2.55;;;;;;;;;;5034220;28;20044;-25
2023/03/27 12:40:37;;;;;;;9.70;2.55;;;;;;;;;;5034353;28;20035;-25
2023/03/27 12:43:03;;;;;;;3.70;1.80;;;;;;;;;;5034309;28;20029;-23
2023/03/27 12:45:29;;;;;;;10.57;2.35;;;;;;;;;;5017263;28;20124;-22
2023/03/27 12:48:08;;;;;;;12.65;2.17;;;;;;;;;;5037310;28;20049;-23
2023/03/27 12:50:55;;;;;;;12.45;2.60;;;;;;;;;;5038303;28;20017;-24
2023/03/27 12:53:27;;;;;;;13.25;2.28;;;;;;;;;;5038533;28;20538;-22
2023/03/27 12:56:12;;;;;;;5.82;2.00;;;;;;;;;;5038391;28;20029;-25
2023/03/27 12:58:38;;;;;;;8.98;2.30;;;;;;;;;;5038179;28;20108;-22
2023/03/27 13:01:09;;;;;;;3.25;1.83;;;;;;;;;;5038456;28;20105;-22
2023/03/27 13:03:35;;;;;;;6.05;2.30;;;;;;;;;;5038133;28;20356;-23
2023/03/27 13:06:13;;;;;;;7.45;2.25;;;;;;;;;;5037939;28;20414;-26
2023/03/27 13:09:09;;;;;;;6.35;1.98;;;;;;;;;;5038376;28;20021;-24
2023/03/27 13:11:35;;;;;;;10.75;2.38;;;;;;;;;;5029641;28;20049;-22
2023/03/27 13:14:17;;;;;;;5.20;3.15;;;;;;;;;;5038671;28;20025;-23
2023/03/27 13:16:49;;;;;;;5.72;2.25;;;;;;;;;;5037903;28;20057;-26
2023/03/27 13:19:21;;;;;;;5.57;2.20;;;;;;;;;;5037877;28;20037;-23
2023/03/27 13:22:06;;;;;;;10.48;1.98;;;;;;;;;;5037774;28;20041;-28
2023/03/27 13:24:32;;;;;;;4.72;1.75;;;;;;;;;;5037751;28;20051;-22
2023/03/27 13:27:17;;;;;;;7.90;1.90;;;;;;;;;;5038127;28;20061;-22
2023/03/27 13:29:48;;;;;;;5.13;1.90;;;;;;;;;;5037942;28;20410;-25
2023/03/27 13:32:31;;;;;;;9.05;1.92;;;;;;;;;;5037888;28;20097;-27
2023/03/27 13:35:16;;;;;;;8.00;3.13;;;;;;;;;;5037985;28;20412;-24
2023/03/27 13:37:47;;;;;;;8.13;2.15;;;;;;;;;;5037630;28;20071;-22
2023/03/27 13:40:19;;;;;;;6.65;2.28;;;;;;;;;;5020895;28;20061;-22
2023/03/27 13:42:47;;;;;;;4.93;1.95;;;;;;;;;;5019982;28;20064;-22
2023/03/27 13:45:16;;;;;;;7.43;1.98;;;;;;;;;;5020001;28;20048;-22
2023/03/27 13:47:46;;;;;;;5.90;1.90;;;;;;;;;;5020003;28;20040;-23
2023/03/27 13:50:30;;;;;;;3.33;1.95;;;;;;;;;;5037377;28;20095;-22
2023/03/27 13:53:06;;;;;;;7.72;2.40;;;;;;;;;;5037298;28;20388;-22
2023/03/27 13:55:33;;;;;;;3.78;1.70;;;;;;;;;;5037566;28;20352;-22
2023/03/27 13:58:18;;;;;;;6.35;2.05;;;;;;;;;;5036723;28;20037;-25
2023/03/27 14:00:55;;;;;;;7.85;2.00;;;;;;;;;;5037143;28;20031;-24
2023/03/27 14:03:27;;;;;;;11.55;2.25;;;;;;;;;;5037599;28;20024;-24
2023/03/27 14:05:53;;;;;;;16.63;2.15;;;;;;;;;;5036960;28;20045;-24
2023/03/27 14:08:22;;;;;;;8.18;2.65;;;;;;;;;;5037390;28;20334;-25
2023/03/27 14:11:06;;;;;;;8.73;2.45;;;;;;;;;;5037321;28;20100;-23
2023/03/27 14:13:50;;;;;;;5.45;2.10;;;;;;;;;;5036890;28;20091;-22
2023/03/27 14:16:22;;;;;;;7.72;1.85;;;;;;;;;;5037301;28;20367;-26
2023/03/27 14:18:48;;;;;;;4.88;2.05;;;;;;;;;;5036897;28;20341;-22
2023/03/27 14:21:19;;;;;;;8.77;2.38;;;;;;;;;;5036797;28;20040;-23
2023/03/27 14:23:57;;;;;;;4.10;1.70;;;;;;;;;;5036859;28;20112;-26
2023/03/27 14:26:28;;;;;;;6.20;2.38;;;;;;;;;;5037005;28;20034;-24
2023/03/27 14:28:59;;;;;;;10.38;3.60;;;;;;;;;;5036806;28;20041;-23
2023/03/27 14:31:27;;;;;;;8.07;2.00;;;;;;;;;;5036625;28;20033;-23
2023/03/27 14:34:01;;;;;;;5.20;2.05;;;;;;;;;;5036635;28;20044;-23
2023/03/27 14:36:29;;;;;;;12.13;3.00;;;;;;;;;;5036816;28;20334;-23
2023/03/27 14:39:15;;;;;;;7.55;2.45;;;;;;;;;;5036513;28;20030;-23
2023/03/27 14:42:01;;;;;;;9.13;1.90;;;;;;;;;;5029635;28;20099;-24
2023/03/27 14:44:31;;;;;;;7.50;3.60;;;;;;;;;;5036957;28;20490;-23
2023/03/27 14:47:07;;;;;;;4.65;2.05;;;;;;;;;;5036366;28;20034;-22
2023/03/27 14:49:45;;;;;;;10.35;2.13;;;;;;;;;;5036610;28;20368;-24
2023/03/27 14:52:20;;;;;;;6.78;1.80;;;;;;;;;;5036511;28;20030;-24
2023/03/27 14:54:47;;;;;;;2.75;2.50;;;;;;;;;;5036199;28;20075;-23
2023/03/27 14:57:13;;;;;;;38.00;4.88;;;;;;;;;;5036405;28;20107;-23
2023/03/27 14:59:41;;;;;;;37.17;4.68;;;;;;;;;;5036064;28;20075;-27
2023/03/27 15:02:29;;;;;;;33.25;4.45;;;;;;;;;;5036082;28;20018;-24
2023/03/27 15:04:59;;;;;;;42.03;5.80;;;;;;;;;;5035817;28;20236;-22
2023/03/27 15:07:29;;;;;;;42.45;4.28;;;;;;;;;;5036246;28;20361;-23